Time;durP1;ratioP1;P1;durP2;ratioP2;P2;SDS_P1;SDS_P2;PMS_P1;PMS_P2;Temp;Humidity;BMP_temperature;BMP_pressure;BME280_temperature;BME280_humidity;BME280_pressure;Samples;Min_cycle;Max_cycle;Signal;HPM_P1;HPM_P2
2021/04/29 00:00:58;;;;;;;19.25;11.85;;;;;;;8.17;37.11;99473.94;123682;1124;103008;-78
2021/04/29 00:13:09;;;;;;;;;;;;;;;;;;;;;
2021/04/29 00:30:09;;;;;;;;;;;;;;;;;;;;;
2021/04/29 00:38:33;;;;;;;;;;;;;;;;;;;;;
2021/04/29 00:46:43;;;;;;;20.63;14.13;;;;;;;7.50;40.43;99445.88;126145;1104;103116;-79
2021/04/29 00:54:59;;;;;;;23.43;13.97;;;;;;;7.41;40.35;99456.57;124662;1109;103537;-77
2021/04/29 00:59:35;;;;;;;22.83;13.13;;;;;;;7.35;40.52;99443.77;126527;1091;103025;-78
2021/04/29 01:03:44;;;;;;;22.57;13.93;;;;;;;7.31;40.78;99443.92;126059;1104;103072;-78
2021/04/29 01:07:57;;;;;;;21.20;14.13;;;;;;;7.26;41.34;99436.30;125115;1111;102997;-78
2021/04/29 01:12:04;;;;;;;23.97;14.03;;;;;;;7.20;41.94;99445.13;125093;1111;102958;-78
2021/04/29 01:16:13;;;;;;;21.57;14.17;;;;;;;7.15;41.87;99436.62;124541;1114;103400;-78
2021/04/29 01:28:41;;;;;;;23.87;14.90;;;;;;;7.07;42.86;99436.02;124517;1117;103209;-79
2021/04/29 01:37:30;;;;;;;23.90;15.15;;;;;;;7.05;43.43;99436.97;123766;1124;103128;-78
2021/04/29 01:41:28;;;;;;;;;;;;;;;;;;;;;
2021/04/29 01:46:11;;;;;;;25.03;14.68;;;;;;;7.03;44.39;99434.42;124084;1120;103035;-79
2021/04/29 01:49:56;;;;;;;24.47;14.73;;;;;;;7.03;44.45;99423.20;124190;1115;102992;-78
2021/04/29 02:11:56;;;;;;;24.80;14.80;;;;;;;6.98;45.46;99429.36;124182;1120;102966;-78
2021/04/29 02:15:55;;;;;;;22.48;14.63;;;;;;;6.95;45.51;99426.86;123936;1118;104809;-79
2021/04/29 02:32:49;;;;;;;25.47;15.43;;;;;;;6.84;46.44;99412.55;126493;1093;102930;-78
2021/04/29 02:36:59;;;;;;;30.47;15.93;;;;;;;6.81;47.90;99417.80;126139;1104;103147;-78
2021/04/29 02:41:08;;;;;;;24.63;15.73;;;;;;;6.76;47.65;99409.33;125958;1108;103078;-79
2021/04/29 02:45:16;;;;;;;26.60;16.23;;;;;;;6.72;47.68;99410.32;125113;1111;103093;-78
2021/04/29 02:49:25;;;;;;;24.73;16.67;;;;;;;6.66;48.30;99403.59;124713;1114;103132;-78
2021/04/29 02:53:39;;;;;;;23.70;16.40;;;;;;;6.62;49.00;99405.39;124152;1115;103272;-79
2021/04/29 03:02:36;;;;;;;24.80;17.40;;;;;;;6.52;49.49;99401.39;123560;1130;103069;-78
2021/04/29 03:10:12;;;;;;;23.45;17.35;;;;;;;6.48;49.78;99401.53;126486;1092;103096;-77
2021/04/29 03:14:30;;;;;;;24.60;16.60;;;;;;;6.44;50.77;99412.84;125911;1107;103163;-78
2021/04/29 03:18:40;;;;;;;24.90;16.63;;;;;;;6.37;50.64;99401.83;125077;1111;103050;-78
2021/04/29 03:22:20;;;;;;;;;;;;;;;6.31;51.18;99404.60;124798;1114;103288;-78
2021/04/29 03:34:36;;;;;;;30.60;18.00;;;;;;;6.20;51.84;99399.70;126478;1092;103032;-78
2021/04/29 03:47:02;;;;;;;25.60;17.63;;;;;;;6.28;52.07;99407.25;124744;1106;102942;-77
2021/04/29 03:55:04;;;;;;;24.37;17.27;;;;;;;6.35;52.75;99406.20;126537;1093;102962;-78
2021/04/29 03:59:14;;;;;;;29.97;18.43;;;;;;;6.37;53.35;99391.47;126094;1104;103020;-78
2021/04/29 04:03:31;;;;;;;25.57;16.37;;;;;;;6.42;52.49;99393.92;125116;1110;102985;-78
2021/04/29 04:07:44;;;;;;;29.43;17.77;;;;;;;6.46;53.16;99391.19;124768;1114;103225;-78
2021/04/29 04:12:34;;;;;;;27.25;17.65;;;;;;;6.50;53.42;99395.41;124127;1120;103136;-78
2021/04/29 04:16:42;;;;;;;24.85;17.45;;;;;;;6.52;53.03;99393.63;123876;1118;103146;-78
2021/04/29 04:20:50;;;;;;;25.75;17.50;;;;;;;6.59;53.72;99400.30;123776;1127;103097;-78
2021/04/29 04:24:58;;;;;;;27.60;18.00;;;;;;;6.59;54.55;99400.30;123600;1127;103120;-78
2021/04/29 04:32:39;;;;;;;28.77;19.07;;;;;;;6.71;53.72;99393.08;126566;1092;103088;-78
2021/04/29 04:37:00;;;;;;;;;;;;;;;;;;;;;
2021/04/29 05:06:11;;;;;;;28.40;16.00;;;;;;;10.11;48.28;99370.91;126525;1093;103419;-78
2021/04/29 05:14:31;;;;;;;22.80;15.68;;;;;;;11.94;44.31;99361.32;124710;1114;103046;-78
2021/04/29 05:30:58;;;;;;;19.83;14.57;;;;;;;15.96;37.57;99350.21;125132;1111;102966;-79
2021/04/29 05:35:32;;;;;;;21.93;14.53;;;;;;;16.77;35.74;99344.56;124766;1114;102661;-79
2021/04/29 05:39:16;;;;;;;17.90;13.10;;;;;;;17.65;34.82;99331.05;124580;1117;103154;-81
2021/04/29 05:43:51;;;;;;;23.70;14.13;;;;;;;17.94;32.32;99331.48;124134;1120;103206;-79
2021/04/29 05:55:34;;;;;;;;;;;;;;;;;;;;;
2021/04/29 05:59:48;;;;;;;19.00;13.10;;;;;;;18.20;31.65;99324.20;123690;1130;103007;-80
2021/04/29 06:03:42;;;;;;;;;;;;;;;;;;;;;
2021/04/29 06:11:42;;;;;;;;;;;;;;;;;;;;;
2021/04/29 06:16:15;;;;;;;18.00;13.20;;;;;;;19.87;29.73;99318.41;123632;1130;103212;-79
2021/04/29 06:19:53;;;;;;;;;;;;;;;20.29;29.53;99314.83;123516;1130;103105;-80
2021/04/29 06:23:07;;;;;;;;;;;;;;;;;;;;;
2021/04/29 06:27:36;;;;;;;18.45;12.45;;;;;;;20.15;28.82;99300.16;124157;1123;103111;-80
2021/04/29 06:31:08;;;;;;;;;;;;;;;;;;;;;
2021/04/29 06:34:47;;;;;;;17.65;12.50;;;;;;;21.39;28.85;99298.77;123993;1123;102285;-78
2021/04/29 06:38:07;;;;;;;;;;;;;;;;;;;;;
2021/04/29 06:41:42;;;;;;;15.40;12.40;;;;;;;23.32;26.99;99286.39;123935;1124;103243;-79
2021/04/29 06:45:04;;;;;;;;;;;;;;;;;;;;;
2021/04/29 06:48:21;;;;;;;19.00;12.20;;;;;;;24.19;25.50;99287.33;124729;1117;103043;-80
2021/04/29 06:51:58;;;;;;;;;;;;;;;;;;;;;
2021/04/29 06:55:07;;;;;;;13.37;11.20;;;;;;;24.91;24.16;99288.59;124579;1115;103246;-79
2021/04/29 06:58:27;;;;;;;18.93;11.97;;;;;;;24.91;23.61;99300.09;124710;1108;103052;-80
2021/04/29 07:01:39;;;;;;;15.30;11.30;;;;;;;24.95;22.94;99295.26;124790;1114;102958;-79
2021/04/29 07:05:15;;;;;;;17.45;12.03;;;;;;;24.86;23.08;99288.25;125185;1114;101343;-80
2021/04/29 07:08:41;;;;;;;17.10;11.93;;;;;;;24.66;23.50;99295.71;125161;1111;103051;-80
2021/04/29 07:11:48;;;;;;;;;;;;;;;;;;;;;
2021/04/29 07:15:23;;;;;;;15.87;11.90;;;;;;;24.63;23.47;99294.21;125673;1107;103082;-79
2021/04/29 07:18:24;;;;;;;;;;;;;;;;;;;;;
2021/04/29 07:21:35;;;;;;;18.33;11.70;;;;;;;24.47;23.11;99301.31;125791;1107;103142;-78
2021/04/29 07:24:53;;;;;;;16.60;11.83;;;;;;;24.05;22.85;99302.06;126363;1108;103085;-80
2021/04/29 07:28:20;;;;;;;;;;;;;;;;;;;;;
2021/04/29 07:31:33;;;;;;;;;;;;;;;;;;;;;
2021/04/29 07:35:07;;;;;;;;;;;;;;;;;;;;;
2021/04/29 07:38:51;;;;;;;15.20;11.13;;;;;;;24.17;23.38;99283.98;125980;1107;102444;-81
2021/04/29 07:42:07;;;;;;;16.47;12.27;;;;;;;23.96;23.62;99274.56;126041;1107;103129;-78
2021/04/29 07:45:26;;;;;;;;;;;;;;;24.19;23.62;99274.84;126301;1108;103104;-80
2021/04/29 07:48:53;;;;;;;;;;;;;;;;;;;;;
2021/04/29 07:52:36;;;;;;;;;;;;;;;;;;;;;
2021/04/29 07:56:03;;;;;;;;;;;;;;;;;;;;;
2021/04/29 08:00:09;;;;;;;15.07;10.90;;;;;;;22.63;24.82;99262.30;125374;1103;103061;-80
2021/04/29 08:03:40;;;;;;;15.93;11.13;;;;;;;21.99;25.38;99258.67;125090;1108;103008;-78
2021/04/29 08:11:32;;;;;;;16.27;12.17;;;;;;;21.03;26.73;99247.25;124877;1108;103567;-79
2021/04/29 08:15:06;;;;;;;;;;;;;;;;;;;;;
2021/04/29 08:18:34;;;;;;;;;;;;;;;;;;;;;
2021/04/29 08:22:15;;;;;;;;;;;;;;;;;;;;;
2021/04/29 08:25:54;;;;;;;18.83;13.10;;;;;;;21.80;26.79;99234.85;124506;1117;102995;-78
2021/04/29 08:29:35;;;;;;;;;;;;;;;;;;;;;
2021/04/29 08:33:06;;;;;;;16.67;12.40;;;;;;;20.79;27.17;99237.05;124578;1109;102980;-79
2021/04/29 08:36:33;;;;;;;;;;;;;;;20.25;27.82;99240.13;124740;1117;102979;-79
2021/04/29 08:40:43;;;;;;;18.37;11.80;;;;;;;19.66;28.86;99255.91;124588;1117;102846;-80
2021/04/29 08:44:27;;;;;;;;;;;;;;;;;;;;;
2021/04/29 08:48:16;;;;;;;;;;;;;;;;;;;;;
2021/04/29 08:51:32;;;;;;;14.18;12.08;;;;;;;20.22;28.90;99216.58;124979;1115;103015;-80
2021/04/29 08:54:51;;;;;;;21.10;12.07;;;;;;;20.51;28.56;99212.22;124723;1117;103153;-79
2021/04/29 08:58:21;;;;;;;;;;;;;;;;;;;;;
2021/04/29 09:02:14;;;;;;;13.77;11.33;;;;;;;22.09;27.54;99195.78;124454;1117;103329;-79
2021/04/29 09:06:15;;;;;;;16.50;11.47;;;;;;;22.57;26.10;99199.93;124442;1117;103148;-81
2021/04/29 09:10:13;;;;;;;;;;;;;;;;;;;;;
2021/04/29 09:14:17;;;;;;;19.70;11.37;;;;;;;21.72;26.10;99187.79;124496;1117;103271;-78
2021/04/29 09:18:14;;;;;;;13.43;10.00;;;;;;;21.01;26.65;99188.24;124486;1117;103310;-79
2021/04/29 09:21:48;;;;;;;;;;;;;;;20.71;27.22;99180.44;124532;1117;103022;-79
2021/04/29 09:25:55;;;;;;;15.00;10.53;;;;;;;20.04;27.70;99192.56;124517;1117;103379;-78
2021/04/29 09:30:01;;;;;;;13.45;11.10;;;;;;;19.36;28.60;99201.13;124698;1114;102963;-78
2021/04/29 09:34:04;;;;;;;;;;;;;;;;;;;;;
2021/04/29 09:38:01;;;;;;;;;;;;;;;;;;;;;
2021/04/29 09:41:34;;;;;;;;;;;;;;;;;;;;;
2021/04/29 09:45:28;;;;;;;;;;;;;;;;;;;;;
2021/04/29 09:49:29;;;;;;;;;;;;;;;;;;;;;
2021/04/29 09:58:13;;;;;;;13.10;11.20;;;;;;;18.05;30.89;99179.30;123791;1127;103189;-78
2021/04/29 10:02:16;;;;;;;15.70;11.90;;;;;;;18.01;31.17;99177.88;123698;1133;102987;-82
2021/04/29 10:05:53;;;;;;;14.90;11.40;;;;;;;17.81;31.40;99174.19;123296;1133;103263;-80
2021/04/29 10:09:46;;;;;;;14.50;11.70;;;;;;;17.66;31.76;99158.70;123169;1133;104843;-80
2021/04/29 10:18:27;;;;;;;19.77;12.33;;;;;;;18.31;31.83;99149.97;126844;1089;102929;-82
2021/04/29 10:22:17;;;;;;;;;;;;;;;;;;;;;
2021/04/29 10:26:18;;;;;;;14.87;10.90;;;;;;;18.97;31.12;99146.22;125194;1111;103072;-79
2021/04/29 10:30:18;;;;;;;;;;;;;;;;;;;;;
2021/04/29 10:34:11;;;;;;;14.20;10.87;;;;;;;19.32;29.92;99127.37;124554;1114;103211;-79
2021/04/29 10:42:19;;;;;;;;;;;;;;;;;;;;;
2021/04/29 10:46:20;;;;;;;;;;;;;;;;;;;;;
2021/04/29 10:50:17;;;;;;;12.15;9.98;;;;;;;19.31;29.40;99130.14;126753;1091;102926;-79
2021/04/29 10:54:19;;;;;;;;;;;;;;;;;;;;;
2021/04/29 10:58:18;;;;;;;;;;;;;;;;;;;;;
2021/04/29 11:02:28;;;;;;;17.80;9.87;;;;;;;18.77;30.59;99114.53;125209;1111;102965;-77
2021/04/29 11:06:25;;;;;;;15.87;10.40;;;;;;;18.87;30.81;99112.80;124751;1114;102767;-80
2021/04/29 11:14:26;;;;;;;12.93;9.77;;;;;;;19.49;30.09;99096.83;124469;1117;103194;-79
2021/04/29 11:18:50;;;;;;;11.35;8.30;;;;;;;19.98;30.02;99075.83;124184;1120;102961;-79
2021/04/29 11:22:58;;;;;;;11.40;8.30;;;;;;;20.25;29.06;99083.08;124299;1121;103879;-79
2021/04/29 11:27:08;;;;;;;13.23;8.30;;;;;;;20.31;28.79;99087.84;123994;1120;103282;-81
2021/04/29 11:39:15;;;;;;;10.10;7.47;;;;;;;20.50;28.54;99072.81;126374;1093;101654;-83
2021/04/29 11:43:27;;;;;;;10.73;6.73;;;;;;;20.41;28.62;99062.20;126331;1104;102763;-84
2021/04/29 11:47:29;;;;;;;9.53;7.07;;;;;;;20.44;29.04;99062.76;126225;1108;103180;-83
2021/04/29 11:51:40;;;;;;;;;;;;;;;;;;;;;
2021/04/29 11:55:50;;;;;;;8.18;6.73;;;;;;;20.12;28.35;99049.80;125273;1111;103163;-83
2021/04/29 11:59:50;;;;;;;;;;;;;;;;;;;;;
2021/04/29 12:04:27;;;;;;;12.03;6.10;;;;;;;20.11;28.90;99060.52;124461;1120;103177;-83
2021/04/29 12:08:13;;;;;;;;;;;;;;;;;;;;;
2021/04/29 12:16:29;;;;;;;9.90;4.40;;;;;;;20.27;26.02;99049.35;126689;1090;102934;-83
2021/04/29 12:20:36;;;;;;;8.50;4.53;;;;;;;20.16;26.76;99068.88;126344;1105;102938;-83
2021/04/29 12:24:41;;;;;;;9.47;5.30;;;;;;;20.15;27.90;99040.73;125408;1103;101849;-84
2021/04/29 12:28:55;;;;;;;6.87;5.27;;;;;;;20.18;28.40;99040.45;125237;1111;103138;-84
2021/04/29 12:33:05;;;;;;;10.87;5.93;;;;;;;20.28;29.00;99051.02;124873;1114;104044;-84
2021/04/29 12:37:20;;;;;;;;;;;;;;;;;;;;;
2021/04/29 12:41:38;;;;;;;;;;;;;;;;;;;;;
2021/04/29 12:45:37;;;;;;;9.87;5.77;;;;;;;19.69;30.70;99023.69;124814;1117;101825;-80
2021/04/29 12:54:17;;;;;;;9.40;5.80;;;;;;;19.85;31.28;99013.41;124334;1124;102997;-81
2021/04/29 12:58:11;;;;;;;;;;;;;;;;;;;;;
2021/04/29 13:02:19;;;;;;;8.25;5.25;;;;;;;20.14;30.50;99002.00;124257;1124;103058;-80
2021/04/29 13:06:14;;;;;;;;;;;;;;;;;;;;;
2021/04/29 13:14:37;;;;;;;9.57;4.63;;;;;;;20.42;29.80;98985.27;124373;1120;103221;-80
2021/04/29 13:26:39;;;;;;;6.40;4.83;;;;;;;20.62;27.99;98956.08;126768;1092;102768;-79
2021/04/29 13:34:24;;;;;;;7.70;5.23;;;;;;;20.60;29.19;98960.69;126114;1108;103129;-81
2021/04/29 13:37:46;;;;;;;9.10;4.50;;;;;;;20.45;29.25;98957.66;125311;1111;103423;-79
2021/04/29 13:41:30;;;;;;;10.60;5.00;;;;;;;20.18;27.88;98992.80;125128;1111;103041;-81
2021/04/29 13:45:20;;;;;;;;;;;;;;;;;;;;;
2021/04/29 13:49:16;;;;;;;;;;;;;;;;;;;;;
2021/04/29 13:53:47;;;;;;;11.43;5.00;;;;;;;19.50;28.99;98955.70;126681;1091;103008;-80
2021/04/29 13:57:40;;;;;;;9.70;5.30;;;;;;;19.35;29.35;98941.20;126401;1104;102976;-81
2021/04/29 14:01:29;;;;;;;;;;;;;;;;;;;;;
2021/04/29 14:05:16;;;;;;;12.87;6.40;;;;;;;19.20;29.84;98948.67;126346;1103;103226;-81
2021/04/29 14:09:17;;;;;;;10.03;6.10;;;;;;;19.14;30.25;98938.66;126114;1102;103021;-80
2021/04/29 14:17:18;;;;;;;7.83;4.97;;;;;;;19.17;30.24;98956.04;125229;1114;102963;-81
2021/04/29 14:21:06;;;;;;;;;;;;;;;;;;;;;
2021/04/29 14:24:49;;;;;;;9.27;5.20;;;;;;;19.25;30.45;98920.05;124860;1117;102950;-79
2021/04/29 14:28:02;;;;;;;10.23;4.97;;;;;;;19.32;30.71;98921.16;124555;1120;103142;-80
2021/04/29 14:31:40;;;;;;;12.30;4.80;;;;;;;19.39;30.71;98910.02;124602;1120;101683;-80
2021/04/29 14:35:16;;;;;;;8.37;5.10;;;;;;;19.43;30.64;98916.73;124466;1112;103083;-81
2021/04/29 14:42:45;;;;;;;9.68;4.90;;;;;;;19.49;30.58;98926.75;124579;1117;103126;-81
2021/04/29 14:46:19;;;;;;;;;;;;;;;;;;;;;
2021/04/29 14:50:17;;;;;;;;;;;;;;;;;;;;;
2021/04/29 14:54:20;;;;;;;11.60;4.70;;;;;;;19.58;31.02;98899.52;123848;1127;103036;-80
2021/04/29 14:57:44;;;;;;;;;;;;;;;;;;;;;
2021/04/29 15:01:58;;;;;;;10.10;4.70;;;;;;;19.45;31.18;98905.04;123778;1124;103547;-80
2021/04/29 15:05:32;;;;;;;;;;;;;;;;;;;;;
2021/04/29 15:10:05;;;;;;;;;;;;;;;;;;;;;
2021/04/29 15:13:42;;;;;;;;;;;;;;;;;;;;;
2021/04/29 15:18:23;;;;;;;10.30;4.90;;;;;;;19.15;32.59;98892.75;124090;1123;103888;-82
2021/04/29 15:26:08;;;;;;;8.60;5.50;;;;;;;19.04;33.65;98889.41;124003;1123;102969;-79
2021/04/29 15:29:32;;;;;;;;;;;;;;;;;;;;;
2021/04/29 15:33:12;;;;;;;9.50;5.70;;;;;;;18.94;34.32;98889.38;123980;1120;102971;-80
2021/04/29 15:37:38;;;;;;;10.20;6.23;;;;;;;18.90;34.83;98893.26;124375;1115;103150;-79
2021/04/29 15:45:14;;;;;;;;;;;;;;;;;;;;;
2021/04/29 15:53:28;;;;;;;;;;;;;;;;;;;;;
2021/04/29 15:58:05;;;;;;;10.30;6.05;;;;;;;18.82;36.49;98883.34;123931;1126;102980;-81
2021/04/29 16:02:11;;;;;;;10.35;6.70;;;;;;;18.78;36.63;98854.70;123858;1125;102239;-79
2021/04/29 16:06:19;;;;;;;10.50;5.95;;;;;;;18.71;36.94;98847.33;123831;1127;103033;-79
2021/04/29 16:10:18;;;;;;;11.50;6.40;;;;;;;18.68;37.37;98847.60;123977;1124;103131;-81
2021/04/29 16:17:59;;;;;;;11.20;6.50;;;;;;;18.61;37.71;98846.42;124130;1115;103052;-79
2021/04/29 16:30:39;;;;;;;7.85;5.00;;;;;;;18.54;35.74;98834.73;124167;1120;103305;-78
2021/04/29 16:34:28;;;;;;;;;;;;;;;;;;;;;
2021/04/29 16:42:21;;;;;;;;;;;;;;;;;;;;;
2021/04/29 16:47:01;;;;;;;9.20;5.00;;;;;;;18.46;34.26;98842.47;123887;1124;102971;-80
2021/04/29 16:51:01;;;;;;;;;;;;;;;;;;;;;
2021/04/29 16:54:40;;;;;;;;;;;;;;;;;;;;;
2021/04/29 16:58:38;;;;;;;;;;;;;;;;;;;;;
2021/04/29 17:02:18;;;;;;;;;;;;;;;;;;;;;
2021/04/29 17:06:09;;;;;;;9.70;5.60;;;;;;;18.31;34.17;98843.79;123603;1126;103241;-79
2021/04/29 17:14:41;;;;;;;9.03;5.40;;;;;;;18.10;34.61;98849.11;123557;1127;103368;-79
2021/04/29 17:26:15;;;;;;;;;;;;;;;;;;;;;
2021/04/29 17:30:47;;;;;;;8.07;4.80;;;;;;;17.83;34.90;98862.01;123815;1124;103129;-78
2021/04/29 17:38:28;;;;;;;8.70;4.90;;;;;;;17.75;34.91;98865.27;126661;1093;103016;-79
2021/04/29 17:42:38;;;;;;;10.10;4.97;;;;;;;17.71;34.84;98867.33;126099;1104;103087;-79
2021/04/29 17:46:47;;;;;;;6.77;4.70;;;;;;;17.70;34.70;98870.09;126003;1108;103033;-80
2021/04/29 17:50:48;;;;;;;5.93;4.73;;;;;;;17.66;34.79;98871.30;125245;1110;103435;-79
2021/04/29 17:54:56;;;;;;;8.87;4.87;;;;;;;17.63;34.94;98869.75;125087;1111;103266;-79
2021/04/29 18:11:09;;;;;;;9.35;5.10;;;;;;;17.48;35.30;98881.56;123778;1127;103191;-78
2021/04/29 18:15:17;;;;;;;12.10;5.10;;;;;;;17.43;35.54;98881.94;123770;1122;104117;-80
2021/04/29 18:19:50;;;;;;;11.10;5.90;;;;;;;17.39;35.51;98883.13;123691;1124;103024;-79
2021/04/29 18:23:31;;;;;;;7.90;5.40;;;;;;;17.36;35.66;98877.28;123604;1130;103576;-80
2021/04/29 18:27:37;;;;;;;;;;;;;;;;;;;;;
2021/04/29 18:35:19;;;;;;;9.97;6.77;;;;;;;17.18;36.36;98884.88;126660;1092;102943;-81
2021/04/29 18:43:31;;;;;;;13.10;7.53;;;;;;;17.02;36.92;98895.81;125088;1111;103107;-79
2021/04/29 18:47:39;;;;;;;19.37;7.40;;;;;;;16.95;37.23;98894.64;124811;1109;103113;-80
2021/04/29 18:51:50;;;;;;;19.33;8.10;;;;;;;16.87;37.52;98892.59;124721;1114;102997;-79
2021/04/29 18:56:20;;;;;;;;;;;;;;;;;;;;;
2021/04/29 19:00:17;;;;;;;20.07;10.03;;;;;;;16.72;39.13;98907.00;124402;1117;103043;-79
2021/04/29 19:04:53;;;;;;;19.17;10.93;;;;;;;16.64;39.84;98896.19;124148;1120;102969;-79
2021/04/29 19:09:00;;;;;;;18.70;11.20;;;;;;;16.56;40.48;98902.06;123883;1127;103077;-80
2021/04/29 19:13:08;;;;;;;28.10;12.50;;;;;;;16.49;41.01;98905.27;123559;1130;103130;-79
2021/04/29 19:21:14;;;;;;;;;;;;;;;;;;;;;
2021/04/29 19:29:29;;;;;;;;;;;;;;;;;;;;;
2021/04/29 19:33:24;;;;;;;;;;;;;;;;;;;;;
2021/04/29 19:37:37;;;;;;;22.33;14.87;;;;;;;16.10;43.73;98904.75;126099;1105;102975;-79
2021/04/29 19:41:45;;;;;;;23.03;13.93;;;;;;;16.08;44.04;98914.55;126005;1107;102962;-79
2021/04/29 19:50:09;;;;;;;26.37;15.90;;;;;;;16.02;45.04;98928.18;124479;1116;103003;-78
2021/04/29 19:54:44;;;;;;;24.85;16.40;;;;;;;16.00;45.27;98925.67;124404;1114;102987;-79
2021/04/29 19:58:01;;;;;;;;;;;;;;;;;;;;;
2021/04/29 20:15:32;;;;;;;;;;;;;;;;;;;;;
2021/04/29 20:24:15;;;;;;;27.93;16.10;;;;;;;15.68;47.19;98927.23;126071;1107;103027;-80
2021/04/29 20:40:22;;;;;;;26.40;15.77;;;;;;;15.56;48.09;98946.48;126501;1093;102978;-78
2021/04/29 20:44:40;;;;;;;;;;;;;;;;;;;;;
2021/04/29 20:48:37;;;;;;;23.80;14.75;;;;;;;15.52;48.30;98947.66;125940;1107;102993;-80
2021/04/29 20:52:45;;;;;;;22.77;15.40;;;;;;;15.49;48.60;98947.89;125962;1107;103107;-78
2021/04/29 20:57:00;;;;;;;22.17;15.50;;;;;;;15.42;48.56;98940.44;124543;1117;103003;-79
2021/04/29 21:01:25;;;;;;;;;;;;;;;;;;;;;
2021/04/29 21:21:58;;;;;;;22.77;15.53;;;;;;;15.05;49.74;98951.91;126235;1104;103080;-79
2021/04/29 21:30:38;;;;;;;;;;;;;;;;;;;;;
2021/04/29 21:35:02;;;;;;;25.37;16.67;;;;;;;14.79;49.88;98964.26;125169;1106;102994;-79
2021/04/29 21:39:05;;;;;;;31.20;21.10;;;;;;;14.73;50.84;98964.70;124507;1117;103169;-78
2021/04/29 21:43:12;;;;;;;36.40;25.27;;;;;;;14.66;50.25;98953.77;124484;1117;102970;-79
2021/04/29 21:47:24;;;;;;;29.70;21.05;;;;;;;14.63;50.70;98956.61;124167;1120;102990;-78
2021/04/29 21:52:13;;;;;;;30.20;19.45;;;;;;;14.58;50.87;98963.13;123942;1122;102451;-78
2021/04/29 22:04:48;;;;;;;24.10;16.50;;;;;;;14.47;51.37;98948.11;123548;1129;103131;-79
2021/04/29 22:09:08;;;;;;;22.77;15.43;;;;;;;14.45;51.48;98953.47;126715;1091;102901;-79
2021/04/29 22:13:31;;;;;;;23.20;15.00;;;;;;;14.43;51.62;98952.73;125296;1111;102943;-79
2021/04/29 22:17:38;;;;;;;21.80;14.50;;;;;;;14.42;51.88;98955.43;124754;1114;102974;-80
2021/04/29 22:21:22;;;;;;;;;;;;;;;14.42;52.02;98982.50;124267;1120;104659;-78
2021/04/29 22:34:25;;;;;;;25.80;15.20;;;;;;;14.24;54.19;98968.02;123662;1128;103174;-79
2021/04/29 22:42:06;;;;;;;19.67;13.93;;;;;;;14.13;55.44;98954.77;126586;1092;102929;-79
2021/04/29 22:46:17;;;;;;;20.53;13.40;;;;;;;14.06;55.72;98956.13;126148;1104;102754;-78
2021/04/29 22:50:25;;;;;;;20.70;12.63;;;;;;;14.02;56.15;98962.53;126101;1103;102133;-80
2021/04/29 22:54:58;;;;;;;17.73;12.70;;;;;;;14.00;56.24;98967.01;125146;1111;101855;-78
2021/04/29 22:59:06;;;;;;;15.47;11.60;;;;;;;14.01;56.41;98971.34;124778;1113;103157;-78
2021/04/29 23:02:50;;;;;;;14.90;10.67;;;;;;;14.04;56.47;98978.99;124474;1117;102984;-78
2021/04/29 23:06:50;;;;;;;;;;;;;;;;;;;;;
2021/04/29 23:15:22;;;;;;;;;;;;;;;;;;;;;
2021/04/29 23:23:56;;;;;;;;;;;;;;;;;;;;;
2021/04/29 23:37:02;;;;;;;19.20;12.60;;;;;;;14.12;57.37;98968.82;123789;1127;103950;-78
2021/04/29 23:40:48;;;;;;;18.20;13.30;;;;;;;14.14;57.98;98993.16;123752;1126;103000;-79
2021/04/29 23:45:19;;;;;;;19.00;13.20;;;;;;;14.13;57.79;98991.47;123762;1127;103090;-78
2021/04/29 23:49:11;;;;;;;;;;;;;;;;;;;;;
2021/04/29 23:57:25;;;;;;;;;;;;;;;;;;;;;
